sensor_id;sensor_type;location;lat;lon;timestamp;P1;durP1;ratioP1;P2;durP2;ratioP2
16760;SDS011;8498;52.516;13.790;2023-07-31T00:03:16;3.00;;;1.80;;
16760;SDS011;8498;52.516;13.790;2023-07-31T00:08:38;2.65;;;1.50;;
16760;SDS011;8498;52.516;13.790;2023-07-31T00:14:01;2.45;;;1.40;;
16760;SDS011;8498;52.516;13.790;2023-07-31T00:19:23;2.85;;;1.95;;
16760;SDS011;8498;52.516;13.790;2023-07-31T00:24:45;2.38;;;1.38;;
16760;SDS011;8498;52.516;13.790;2023-07-31T00:30:08;3.05;;;1.73;;
16760;SDS011;8498;52.516;13.790;2023-07-31T00:35:30;4.80;;;1.58;;
16760;SDS011;8498;52.516;13.790;2023-07-31T00:40:53;3.42;;;1.63;;
16760;SDS011;8498;52.516;13.790;2023-07-31T00:46:16;2.97;;;1.50;;
16760;SDS011;8498;52.516;13.790;2023-07-31T00:51:38;3.38;;;1.65;;
16760;SDS011;8498;52.516;13.790;2023-07-31T00:57:01;2.83;;;1.70;;
16760;SDS011;8498;52.516;13.790;2023-07-31T01:02:24;3.20;;;1.70;;
16760;SDS011;8498;52.516;13.790;2023-07-31T01:07:52;1.65;;;1.38;;
16760;SDS011;8498;52.516;13.790;2023-07-31T01:13:25;2.38;;;1.70;;
16760;SDS011;8498;52.516;13.790;2023-07-31T01:18:47;2.13;;;1.93;;
16760;SDS011;8498;52.516;13.790;2023-07-31T01:29:55;4.00;;;1.58;;
16760;SDS011;8498;52.516;13.790;2023-07-31T01:35:22;3.10;;;1.85;;
16760;SDS011;8498;52.516;13.790;2023-07-31T01:40:44;3.80;;;1.90;;
16760;SDS011;8498;52.516;13.790;2023-07-31T01:46:06;2.20;;;2.00;;
16760;SDS011;8498;52.516;13.790;2023-07-31T01:51:29;3.97;;;2.20;;
16760;SDS011;8498;52.516;13.790;2023-07-31T01:56:56;4.55;;;2.33;;
16760;SDS011;8498;52.516;13.790;2023-07-31T02:02:19;3.20;;;2.15;;
16760;SDS011;8498;52.516;13.790;2023-07-31T02:07:42;3.63;;;2.08;;
16760;SDS011;8498;52.516;13.790;2023-07-31T02:13:04;2.42;;;2.30;;
16760;SDS011;8498;52.516;13.790;2023-07-31T02:18:27;2.78;;;2.40;;
16760;SDS011;8498;52.516;13.790;2023-07-31T02:23:50;4.38;;;2.53;;
16760;SDS011;8498;52.516;13.790;2023-07-31T02:29:14;3.70;;;2.50;;
16760;SDS011;8498;52.516;13.790;2023-07-31T02:34:36;2.38;;;2.28;;
16760;SDS011;8498;52.516;13.790;2023-07-31T02:39:58;3.40;;;2.40;;
16760;SDS011;8498;52.516;13.790;2023-07-31T02:45:23;3.47;;;2.50;;
16760;SDS011;8498;52.516;13.790;2023-07-31T02:50:47;5.43;;;2.40;;
16760;SDS011;8498;52.516;13.790;2023-07-31T02:56:10;6.95;;;2.85;;
16760;SDS011;8498;52.516;13.790;2023-07-31T03:01:32;4.00;;;2.60;;
16760;SDS011;8498;52.516;13.790;2023-07-31T03:06:55;5.07;;;2.60;;
16760;SDS011;8498;52.516;13.790;2023-07-31T03:12:17;8.65;;;2.70;;
16760;SDS011;8498;52.516;13.790;2023-07-31T03:17:41;7.30;;;3.00;;
16760;SDS011;8498;52.516;13.790;2023-07-31T03:23:04;5.55;;;3.08;;
16760;SDS011;8498;52.516;13.790;2023-07-31T03:28:26;5.67;;;3.20;;
16760;SDS011;8498;52.516;13.790;2023-07-31T03:33:48;3.92;;;3.08;;
16760;SDS011;8498;52.516;13.790;2023-07-31T03:39:11;5.88;;;3.42;;
16760;SDS011;8498;52.516;13.790;2023-07-31T03:44:33;5.37;;;3.60;;
16760;SDS011;8498;52.516;13.790;2023-07-31T03:49:55;4.03;;;3.60;;
16760;SDS011;8498;52.516;13.790;2023-07-31T03:55:18;7.77;;;3.40;;
16760;SDS011;8498;52.516;13.790;2023-07-31T04:00:40;9.30;;;3.80;;
16760;SDS011;8498;52.516;13.790;2023-07-31T04:06:03;5.75;;;3.83;;
16760;SDS011;8498;52.516;13.790;2023-07-31T04:11:25;6.15;;;3.72;;
16760;SDS011;8498;52.516;13.790;2023-07-31T04:16:48;10.13;;;3.40;;
16760;SDS011;8498;52.516;13.790;2023-07-31T04:22:11;8.90;;;3.63;;
16760;SDS011;8498;52.516;13.790;2023-07-31T04:27:33;5.28;;;3.28;;
16760;SDS011;8498;52.516;13.790;2023-07-31T04:32:56;4.27;;;3.20;;
16760;SDS011;8498;52.516;13.790;2023-07-31T04:38:19;6.18;;;3.03;;
16760;SDS011;8498;52.516;13.790;2023-07-31T04:43:42;6.47;;;3.10;;
16760;SDS011;8498;52.516;13.790;2023-07-31T04:49:05;5.00;;;3.47;;
16760;SDS011;8498;52.516;13.790;2023-07-31T04:54:27;8.00;;;2.90;;
16760;SDS011;8498;52.516;13.790;2023-07-31T04:59:50;5.80;;;2.90;;
16760;SDS011;8498;52.516;13.790;2023-07-31T05:05:12;6.95;;;3.47;;
16760;SDS011;8498;52.516;13.790;2023-07-31T05:10:35;5.25;;;2.95;;
16760;SDS011;8498;52.516;13.790;2023-07-31T05:16:00;4.23;;;3.70;;
16760;SDS011;8498;52.516;13.790;2023-07-31T05:21:24;5.50;;;2.80;;
16760;SDS011;8498;52.516;13.790;2023-07-31T05:26:47;6.13;;;2.80;;
16760;SDS011;8498;52.516;13.790;2023-07-31T05:32:09;5.68;;;2.80;;
16760;SDS011;8498;52.516;13.790;2023-07-31T05:37:31;4.45;;;2.63;;
16760;SDS011;8498;52.516;13.790;2023-07-31T05:42:54;6.75;;;2.65;;
16760;SDS011;8498;52.516;13.790;2023-07-31T05:48:16;4.72;;;2.72;;
16760;SDS011;8498;52.516;13.790;2023-07-31T05:53:39;9.32;;;2.88;;
16760;SDS011;8498;52.516;13.790;2023-07-31T05:59:03;9.43;;;3.00;;
16760;SDS011;8498;52.516;13.790;2023-07-31T06:04:26;6.05;;;2.70;;
16760;SDS011;8498;52.516;13.790;2023-07-31T06:09:49;3.13;;;2.53;;
16760;SDS011;8498;52.516;13.790;2023-07-31T06:15:11;6.57;;;2.80;;
16760;SDS011;8498;52.516;13.790;2023-07-31T06:20:34;7.55;;;2.72;;
16760;SDS011;8498;52.516;13.790;2023-07-31T06:25:57;8.13;;;2.50;;
16760;SDS011;8498;52.516;13.790;2023-07-31T06:31:19;6.43;;;2.60;;
16760;SDS011;8498;52.516;13.790;2023-07-31T06:36:45;2.70;;;2.40;;
16760;SDS011;8498;52.516;13.790;2023-07-31T06:42:08;8.07;;;2.70;;
16760;SDS011;8498;52.516;13.790;2023-07-31T06:47:31;8.60;;;2.70;;
16760;SDS011;8498;52.516;13.790;2023-07-31T06:52:54;6.10;;;2.50;;
16760;SDS011;8498;52.516;13.790;2023-07-31T06:58:16;4.10;;;2.50;;
16760;SDS011;8498;52.516;13.790;2023-07-31T07:03:39;6.53;;;2.70;;
16760;SDS011;8498;52.516;13.790;2023-07-31T07:09:08;7.25;;;2.80;;
16760;SDS011;8498;52.516;13.790;2023-07-31T07:14:30;4.72;;;2.67;;
16760;SDS011;8498;52.516;13.790;2023-07-31T07:19:52;5.38;;;2.47;;
16760;SDS011;8498;52.516;13.790;2023-07-31T07:25:16;10.90;;;3.03;;
16760;SDS011;8498;52.516;13.790;2023-07-31T07:30:39;3.40;;;2.88;;
16760;SDS011;8498;52.516;13.790;2023-07-31T07:36:02;6.47;;;2.75;;
16760;SDS011;8498;52.516;13.790;2023-07-31T07:41:25;3.70;;;2.40;;
16760;SDS011;8498;52.516;13.790;2023-07-31T07:46:47;6.05;;;2.90;;
16760;SDS011;8498;52.516;13.790;2023-07-31T07:52:09;6.53;;;3.22;;
16760;SDS011;8498;52.516;13.790;2023-07-31T07:57:32;4.00;;;2.72;;
16760;SDS011;8498;52.516;13.790;2023-07-31T08:02:54;7.43;;;3.00;;
16760;SDS011;8498;52.516;13.790;2023-07-31T08:08:19;8.00;;;3.13;;
16760;SDS011;8498;52.516;13.790;2023-07-31T08:13:42;7.22;;;3.00;;
16760;SDS011;8498;52.516;13.790;2023-07-31T08:19:04;2.80;;;2.55;;
16760;SDS011;8498;52.516;13.790;2023-07-31T08:24:27;5.80;;;2.90;;
16760;SDS011;8498;52.516;13.790;2023-07-31T08:29:49;3.33;;;2.90;;
16760;SDS011;8498;52.516;13.790;2023-07-31T08:35:14;4.85;;;2.40;;
16760;SDS011;8498;52.516;13.790;2023-07-31T08:40:36;4.28;;;2.60;;
16760;SDS011;8498;52.516;13.790;2023-07-31T08:46:00;2.70;;;2.50;;
16760;SDS011;8498;52.516;13.790;2023-07-31T08:51:25;4.88;;;2.17;;
16760;SDS011;8498;52.516;13.790;2023-07-31T08:56:49;4.60;;;2.20;;
16760;SDS011;8498;52.516;13.790;2023-07-31T09:02:12;2.58;;;2.10;;
16760;SDS011;8498;52.516;13.790;2023-07-31T09:07:37;4.80;;;2.63;;
16760;SDS011;8498;52.516;13.790;2023-07-31T09:13:00;3.45;;;2.28;;
16760;SDS011;8498;52.516;13.790;2023-07-31T09:18:24;8.02;;;2.85;;
16760;SDS011;8498;52.516;13.790;2023-07-31T09:23:47;2.50;;;2.30;;
16760;SDS011;8498;52.516;13.790;2023-07-31T09:29:18;3.97;;;2.10;;
16760;SDS011;8498;52.516;13.790;2023-07-31T09:34:41;4.72;;;2.10;;
16760;SDS011;8498;52.516;13.790;2023-07-31T09:40:04;3.85;;;2.00;;
16760;SDS011;8498;52.516;13.790;2023-07-31T09:45:27;2.10;;;1.95;;
16760;SDS011;8498;52.516;13.790;2023-07-31T09:51:03;1.65;;;1.48;;
16760;SDS011;8498;52.516;13.790;2023-07-31T09:56:26;2.03;;;1.75;;
16760;SDS011;8498;52.516;13.790;2023-07-31T10:01:49;3.17;;;1.63;;
16760;SDS011;8498;52.516;13.790;2023-07-31T10:07:13;2.45;;;1.50;;
16760;SDS011;8498;52.516;13.790;2023-07-31T10:12:37;1.00;;;1.00;;
16760;SDS011;8498;52.516;13.790;2023-07-31T10:18:03;3.05;;;1.15;;
16760;SDS011;8498;52.516;13.790;2023-07-31T10:23:28;1.95;;;1.30;;
16760;SDS011;8498;52.516;13.790;2023-07-31T10:28:50;1.45;;;1.35;;
16760;SDS011;8498;52.516;13.790;2023-07-31T10:34:14;4.55;;;2.10;;
16760;SDS011;8498;52.516;13.790;2023-07-31T10:39:37;4.97;;;2.08;;
16760;SDS011;8498;52.516;13.790;2023-07-31T10:45:02;5.55;;;2.53;;
16760;SDS011;8498;52.516;13.790;2023-07-31T10:50:29;2.55;;;2.15;;
16760;SDS011;8498;52.516;13.790;2023-07-31T10:55:59;8.32;;;2.60;;
16760;SDS011;8498;52.516;13.790;2023-07-31T11:01:22;6.25;;;3.13;;
16760;SDS011;8498;52.516;13.790;2023-07-31T11:06:54;6.43;;;3.30;;
16760;SDS011;8498;52.516;13.790;2023-07-31T11:12:18;7.32;;;3.78;;
16760;SDS011;8498;52.516;13.790;2023-07-31T11:17:41;6.82;;;3.58;;
16760;SDS011;8498;52.516;13.790;2023-07-31T11:23:06;6.50;;;3.45;;
16760;SDS011;8498;52.516;13.790;2023-07-31T11:28:31;8.25;;;3.53;;
16760;SDS011;8498;52.516;13.790;2023-07-31T11:34:07;3.50;;;2.65;;
16760;SDS011;8498;52.516;13.790;2023-07-31T11:39:30;8.45;;;3.22;;
16760;SDS011;8498;52.516;13.790;2023-07-31T11:44:53;3.72;;;2.80;;
16760;SDS011;8498;52.516;13.790;2023-07-31T11:50:16;5.95;;;2.88;;
16760;SDS011;8498;52.516;13.790;2023-07-31T11:55:38;3.30;;;2.42;;
16760;SDS011;8498;52.516;13.790;2023-07-31T12:01:02;3.60;;;2.30;;
16760;SDS011;8498;52.516;13.790;2023-07-31T12:06:37;4.45;;;2.47;;
16760;SDS011;8498;52.516;13.790;2023-07-31T12:12:00;5.65;;;2.30;;
16760;SDS011;8498;52.516;13.790;2023-07-31T12:17:23;6.80;;;2.30;;
16760;SDS011;8498;52.516;13.790;2023-07-31T12:22:47;5.70;;;2.80;;
16760;SDS011;8498;52.516;13.790;2023-07-31T12:28:09;4.40;;;2.40;;
16760;SDS011;8498;52.516;13.790;2023-07-31T12:33:36;2.80;;;2.60;;
16760;SDS011;8498;52.516;13.790;2023-07-31T12:39:00;4.32;;;2.55;;
16760;SDS011;8498;52.516;13.790;2023-07-31T12:44:23;5.10;;;2.63;;
16760;SDS011;8498;52.516;13.790;2023-07-31T12:49:46;3.97;;;2.40;;
16760;SDS011;8498;52.516;13.790;2023-07-31T12:55:08;3.58;;;2.17;;
16760;SDS011;8498;52.516;13.790;2023-07-31T13:00:32;4.10;;;2.80;;
16760;SDS011;8498;52.516;13.790;2023-07-31T13:05:55;4.32;;;2.47;;
16760;SDS011;8498;52.516;13.790;2023-07-31T13:11:18;3.70;;;2.55;;
16760;SDS011;8498;52.516;13.790;2023-07-31T13:16:40;3.17;;;1.70;;
16760;SDS011;8498;52.516;13.790;2023-07-31T13:22:03;1.75;;;1.60;;
16760;SDS011;8498;52.516;13.790;2023-07-31T13:27:29;1.80;;;1.67;;
16760;SDS011;8498;52.516;13.790;2023-07-31T13:32:53;2.13;;;1.85;;
16760;SDS011;8498;52.516;13.790;2023-07-31T13:38:15;4.43;;;2.20;;
16760;SDS011;8498;52.516;13.790;2023-07-31T13:43:38;3.92;;;2.20;;
16760;SDS011;8498;52.516;13.790;2023-07-31T13:49:00;3.00;;;1.98;;
16760;SDS011;8498;52.516;13.790;2023-07-31T13:54:23;5.55;;;2.53;;
16760;SDS011;8498;52.516;13.790;2023-07-31T13:59:46;3.33;;;2.38;;
16760;SDS011;8498;52.516;13.790;2023-07-31T14:05:09;2.83;;;2.30;;
16760;SDS011;8498;52.516;13.790;2023-07-31T14:10:32;5.57;;;2.60;;
16760;SDS011;8498;52.516;13.790;2023-07-31T14:15:54;5.40;;;2.60;;
16760;SDS011;8498;52.516;13.790;2023-07-31T14:21:16;3.72;;;2.83;;
16760;SDS011;8498;52.516;13.790;2023-07-31T14:26:41;3.40;;;2.78;;
16760;SDS011;8498;52.516;13.790;2023-07-31T14:32:04;7.13;;;2.58;;
16760;SDS011;8498;52.516;13.790;2023-07-31T14:37:26;4.05;;;2.33;;
16760;SDS011;8498;52.516;13.790;2023-07-31T14:42:59;4.13;;;2.65;;
16760;SDS011;8498;52.516;13.790;2023-07-31T14:48:21;3.42;;;2.53;;
16760;SDS011;8498;52.516;13.790;2023-07-31T14:53:44;5.53;;;2.70;;
16760;SDS011;8498;52.516;13.790;2023-07-31T14:59:07;5.55;;;2.80;;
16760;SDS011;8498;52.516;13.790;2023-07-31T15:04:30;5.47;;;3.03;;
16760;SDS011;8498;52.516;13.790;2023-07-31T15:09:52;6.10;;;2.80;;
16760;SDS011;8498;52.516;13.790;2023-07-31T15:15:15;5.05;;;2.45;;
16760;SDS011;8498;52.516;13.790;2023-07-31T15:20:38;3.13;;;2.65;;
16760;SDS011;8498;52.516;13.790;2023-07-31T15:26:00;3.70;;;2.88;;
16760;SDS011;8498;52.516;13.790;2023-07-31T15:31:23;5.50;;;2.40;;
16760;SDS011;8498;52.516;13.790;2023-07-31T15:36:46;3.88;;;2.97;;
16760;SDS011;8498;52.516;13.790;2023-07-31T15:42:09;6.53;;;3.50;;
16760;SDS011;8498;52.516;13.790;2023-07-31T15:47:31;8.75;;;3.05;;
16760;SDS011;8498;52.516;13.790;2023-07-31T15:52:54;5.05;;;3.03;;
16760;SDS011;8498;52.516;13.790;2023-07-31T15:58:17;4.20;;;2.88;;
16760;SDS011;8498;52.516;13.790;2023-07-31T16:03:39;11.25;;;4.72;;
16760;SDS011;8498;52.516;13.790;2023-07-31T16:09:02;5.38;;;2.88;;
16760;SDS011;8498;52.516;13.790;2023-07-31T16:14:24;5.80;;;3.65;;
16760;SDS011;8498;52.516;13.790;2023-07-31T16:19:46;8.82;;;3.03;;
16760;SDS011;8498;52.516;13.790;2023-07-31T16:25:09;5.18;;;3.38;;
16760;SDS011;8498;52.516;13.790;2023-07-31T16:30:32;6.63;;;3.10;;
16760;SDS011;8498;52.516;13.790;2023-07-31T16:35:54;4.85;;;2.95;;
16760;SDS011;8498;52.516;13.790;2023-07-31T16:41:17;5.95;;;3.40;;
16760;SDS011;8498;52.516;13.790;2023-07-31T16:46:40;4.00;;;2.72;;
16760;SDS011;8498;52.516;13.790;2023-07-31T16:52:02;7.45;;;3.00;;
16760;SDS011;8498;52.516;13.790;2023-07-31T16:57:25;2.83;;;2.47;;
16760;SDS011;8498;52.516;13.790;2023-07-31T17:02:48;4.43;;;2.30;;
16760;SDS011;8498;52.516;13.790;2023-07-31T17:08:11;2.72;;;2.47;;
16760;SDS011;8498;52.516;13.790;2023-07-31T17:13:35;7.00;;;2.70;;
16760;SDS011;8498;52.516;13.790;2023-07-31T17:18:57;5.25;;;3.20;;
16760;SDS011;8498;52.516;13.790;2023-07-31T17:24:20;7.05;;;4.25;;
16760;SDS011;8498;52.516;13.790;2023-07-31T17:29:42;3.88;;;3.05;;
16760;SDS011;8498;52.516;13.790;2023-07-31T17:35:05;3.33;;;2.63;;
16760;SDS011;8498;52.516;13.790;2023-07-31T17:40:27;4.80;;;2.30;;
16760;SDS011;8498;52.516;13.790;2023-07-31T17:45:50;6.03;;;2.35;;
16760;SDS011;8498;52.516;13.790;2023-07-31T17:51:13;6.05;;;2.22;;
16760;SDS011;8498;52.516;13.790;2023-07-31T17:56:35;3.13;;;1.77;;
16760;SDS011;8498;52.516;13.790;2023-07-31T18:02:01;3.30;;;1.83;;
16760;SDS011;8498;52.516;13.790;2023-07-31T18:07:27;2.10;;;1.88;;
16760;SDS011;8498;52.516;13.790;2023-07-31T18:12:49;1.88;;;1.70;;
16760;SDS011;8498;52.516;13.790;2023-07-31T18:18:12;3.13;;;1.73;;
16760;SDS011;8498;52.516;13.790;2023-07-31T18:23:35;3.75;;;1.73;;
16760;SDS011;8498;52.516;13.790;2023-07-31T18:28:59;1.70;;;1.60;;
16760;SDS011;8498;52.516;13.790;2023-07-31T18:34:22;2.15;;;1.50;;
16760;SDS011;8498;52.516;13.790;2023-07-31T18:39:45;2.97;;;1.58;;
16760;SDS011;8498;52.516;13.790;2023-07-31T18:45:07;4.57;;;1.88;;
16760;SDS011;8498;52.516;13.790;2023-07-31T18:50:30;2.45;;;1.70;;
16760;SDS011;8498;52.516;13.790;2023-07-31T18:55:53;2.72;;;1.70;;
16760;SDS011;8498;52.516;13.790;2023-07-31T19:01:15;2.75;;;1.80;;
16760;SDS011;8498;52.516;13.790;2023-07-31T19:06:38;2.17;;;1.80;;
16760;SDS011;8498;52.516;13.790;2023-07-31T19:12:02;2.88;;;2.22;;
16760;SDS011;8498;52.516;13.790;2023-07-31T19:17:25;2.63;;;1.90;;
16760;SDS011;8498;52.516;13.790;2023-07-31T19:22:48;2.40;;;2.00;;
16760;SDS011;8498;52.516;13.790;2023-07-31T19:28:10;5.47;;;1.70;;
16760;SDS011;8498;52.516;13.790;2023-07-31T19:33:32;4.32;;;2.17;;
16760;SDS011;8498;52.516;13.790;2023-07-31T19:38:54;5.57;;;2.40;;
16760;SDS011;8498;52.516;13.790;2023-07-31T19:44:17;3.30;;;2.17;;
16760;SDS011;8498;52.516;13.790;2023-07-31T19:49:40;2.45;;;2.17;;
16760;SDS011;8498;52.516;13.790;2023-07-31T19:55:03;4.28;;;2.17;;
16760;SDS011;8498;52.516;13.790;2023-07-31T20:00:25;4.63;;;2.58;;
16760;SDS011;8498;52.516;13.790;2023-07-31T20:05:48;3.50;;;2.58;;
16760;SDS011;8498;52.516;13.790;2023-07-31T20:11:11;3.85;;;2.45;;
16760;SDS011;8498;52.516;13.790;2023-07-31T20:16:33;5.25;;;2.58;;
16760;SDS011;8498;52.516;13.790;2023-07-31T20:22:00;5.35;;;2.92;;
16760;SDS011;8498;52.516;13.790;2023-07-31T20:27:23;4.07;;;2.50;;
16760;SDS011;8498;52.516;13.790;2023-07-31T20:32:46;7.13;;;3.00;;
16760;SDS011;8498;52.516;13.790;2023-07-31T20:38:08;3.65;;;2.63;;
16760;SDS011;8498;52.516;13.790;2023-07-31T20:43:30;5.78;;;2.88;;
16760;SDS011;8498;52.516;13.790;2023-07-31T20:48:53;5.40;;;2.63;;
16760;SDS011;8498;52.516;13.790;2023-07-31T20:54:15;8.38;;;2.70;;
16760;SDS011;8498;52.516;13.790;2023-07-31T20:59:38;3.92;;;2.60;;
16760;SDS011;8498;52.516;13.790;2023-07-31T21:05:01;3.92;;;2.70;;
16760;SDS011;8498;52.516;13.790;2023-07-31T21:10:23;6.18;;;3.03;;
16760;SDS011;8498;52.516;13.790;2023-07-31T21:15:45;4.05;;;2.50;;
16760;SDS011;8498;52.516;13.790;2023-07-31T21:21:09;5.97;;;3.17;;
16760;SDS011;8498;52.516;13.790;2023-07-31T21:26:32;4.10;;;2.63;;
16760;SDS011;8498;52.516;13.790;2023-07-31T21:31:54;5.97;;;3.10;;
16760;SDS011;8498;52.516;13.790;2023-07-31T21:37:18;8.07;;;3.45;;
16760;SDS011;8498;52.516;13.790;2023-07-31T21:42:41;4.25;;;2.90;;
16760;SDS011;8498;52.516;13.790;2023-07-31T21:48:03;3.88;;;2.65;;
16760;SDS011;8498;52.516;13.790;2023-07-31T21:53:26;4.60;;;3.42;;
16760;SDS011;8498;52.516;13.790;2023-07-31T21:58:48;5.10;;;3.20;;
16760;SDS011;8498;52.516;13.790;2023-07-31T22:04:11;5.47;;;3.67;;
16760;SDS011;8498;52.516;13.790;2023-07-31T22:09:33;6.43;;;3.13;;
16760;SDS011;8498;52.516;13.790;2023-07-31T22:14:55;5.47;;;3.22;;
16760;SDS011;8498;52.516;13.790;2023-07-31T22:20:18;7.32;;;3.10;;
16760;SDS011;8498;52.516;13.790;2023-07-31T22:25:40;7.63;;;3.30;;
16760;SDS011;8498;52.516;13.790;2023-07-31T22:31:03;4.50;;;3.35;;
16760;SDS011;8498;52.516;13.790;2023-07-31T22:36:25;7.30;;;3.22;;
16760;SDS011;8498;52.516;13.790;2023-07-31T22:41:48;4.30;;;3.10;;
16760;SDS011;8498;52.516;13.790;2023-07-31T22:47:10;6.50;;;3.58;;
16760;SDS011;8498;52.516;13.790;2023-07-31T22:52:33;5.22;;;2.97;;
16760;SDS011;8498;52.516;13.790;2023-07-31T22:57:55;4.43;;;3.05;;
16760;SDS011;8498;52.516;13.790;2023-07-31T23:03:18;6.97;;;3.00;;
16760;SDS011;8498;52.516;13.790;2023-07-31T23:08:40;7.05;;;3.28;;
16760;SDS011;8498;52.516;13.790;2023-07-31T23:14:03;5.97;;;3.33;;
16760;SDS011;8498;52.516;13.790;2023-07-31T23:19:26;7.95;;;3.65;;
16760;SDS011;8498;52.516;13.790;2023-07-31T23:24:49;5.38;;;3.38;;
16760;SDS011;8498;52.516;13.790;2023-07-31T23:30:11;9.25;;;3.58;;
16760;SDS011;8498;52.516;13.790;2023-07-31T23:35:34;5.65;;;3.47;;
16760;SDS011;8498;52.516;13.790;2023-07-31T23:40:57;5.13;;;3.40;;
16760;SDS011;8498;52.516;13.790;2023-07-31T23:46:19;5.97;;;3.35;;
16760;SDS011;8498;52.516;13.790;2023-07-31T23:51:42;7.32;;;3.67;;
16760;SDS011;8498;52.516;13.790;2023-07-31T23:57:05;6.53;;;3.70;;
